TJSJ

Luis Munoz Marin International Airport

San Juan, Puerto Rico, USA
TJSJ 230527Z 2306/2406 06010KT P6SM VCSH FEW025 SCT050 FM231400 08018G25KT P6SM VCSH SCT025 SCT040 FM232200 06012KT P6SM FEW030
Issued Valid From Valid To
Jan-23 @ 05:27 UTC
(2 hours ago)
Jan-23 @ 06:00 UTC
(an hour ago)
Jan-24 @ 06:00 UTC
(in 23 hours)
Jan-23 @ 06:00 to Jan-23 @ 14:00
TJSJ 230527Z 2306/2406 06010KT P6SM VCSH FEW025 SCT050
Wind Visibility Clouds
60° at 10 knots Greater than 6 miles
  • Few at 2,500' AGL
  • Scattered at 5,000' AGL
From Jan-23 @ 14:00 to Jan-23 @ 22:00
FM231400 08018G25KT P6SM VCSH SCT025 SCT040
Wind Visibility Clouds
80° at 18 knots
 Gusting to 25 knots
Greater than 6 miles
  • Scattered at 2,500' AGL
  • Scattered at 4,000' AGL
From Jan-23 @ 22:00 to Jan-24 @ 06:00
FM232200 06012KT P6SM FEW030
Wind Visibility Clouds
60° at 12 knots Greater than 6 miles
  • Few at 3,000' AGL
TJSJ 230527Z 2306/2406 06010KT P6SM VCSH FEW025 SCT050 FM231400 08018G25KT P6SM VCSH SCT025 SCT040 FM232200 06012KT P6SM FEW030
Issued Jan-23 @ 05:27 UTC
(2 hours ago)
Valid From Jan-23 @ 06:00 UTC
(an hour ago)
Valid To Jan-24 @ 06:00 UTC
(in 23 hours)
Jan-23 @ 06:00 - Jan-23 @ 14:00
Wind Visibility
60° at 10 knots Greater than 6 miles
Clouds
  • Few at 2,500' AGL
  • Scattered at 5,000' AGL
From Jan-23 @ 14:00 - Jan-23 @ 22:00
Wind Visibility
80° at 18 knots
 Gusting to 25 knots
Greater than 6 miles
Clouds
  • Scattered at 2,500' AGL
  • Scattered at 4,000' AGL
From Jan-23 @ 22:00 - Jan-24 @ 06:00
Wind Visibility
60° at 12 knots Greater than 6 miles
Clouds
  • Few at 3,000' AGL